createdAt,value
2019-03-30T00:01:51.496Z,13.30
2019-03-30T00:04:18.590Z,13.10
2019-03-30T00:06:45.719Z,13.70
2019-03-30T00:09:13.113Z,13.13
2019-03-30T00:11:40.175Z,11.77
2019-03-30T00:14:07.386Z,12.70
2019-03-30T00:16:34.773Z,13.97
2019-03-30T00:19:01.982Z,13.50
2019-03-30T00:21:29.078Z,14.27
2019-03-30T00:23:56.220Z,13.90
2019-03-30T00:26:23.290Z,15.50
2019-03-30T00:28:50.420Z,13.73
2019-03-30T00:31:18.130Z,13.83
2019-03-30T00:33:45.425Z,13.17
2019-03-30T00:36:13.625Z,13.00
2019-03-30T00:38:40.993Z,13.33
2019-03-30T00:41:09.268Z,12.93
2019-03-30T00:43:37.112Z,13.30
2019-03-30T00:46:06.305Z,13.77
2019-03-30T00:48:37.889Z,12.17
2019-03-30T00:51:07.654Z,12.03
2019-03-30T00:53:39.964Z,12.03
2019-03-30T00:56:09.779Z,12.47
2019-03-30T00:58:39.483Z,12.60
2019-03-30T01:01:10.431Z,12.63
2019-03-30T01:03:41.020Z,13.07
2019-03-30T01:06:08.652Z,12.77
2019-03-30T01:08:35.939Z,12.63
2019-03-30T01:11:03.320Z,13.80
2019-03-30T01:13:33.689Z,14.23
2019-03-30T01:16:00.929Z,12.97
2019-03-30T01:18:28.347Z,14.83
2019-03-30T01:20:58.388Z,12.30
2019-03-30T01:23:27.588Z,11.60
2019-03-30T01:25:58.177Z,11.50
2019-03-30T01:28:27.915Z,12.23
2019-03-30T01:30:57.458Z,12.77
2019-03-30T01:33:28.833Z,12.87
2019-03-30T01:35:59.444Z,12.30
2019-03-30T01:38:29.721Z,12.77
2019-03-30T01:41:01.070Z,12.93
2019-03-30T01:43:29.662Z,12.47
2019-03-30T01:46:00.062Z,14.03
2019-03-30T01:48:30.645Z,13.53
2019-03-30T01:50:58.477Z,13.17
2019-03-30T01:53:29.398Z,13.50
2019-03-30T01:55:59.858Z,13.97
2019-03-30T01:58:32.719Z,12.83
2019-03-30T02:01:00.792Z,13.53
2019-03-30T02:03:28.213Z,13.03
2019-03-30T02:05:55.301Z,13.80
2019-03-30T02:08:22.495Z,14.17
2019-03-30T02:10:49.562Z,14.03
2019-03-30T02:13:16.914Z,12.43
2019-03-30T02:15:44.058Z,11.77
2019-03-30T02:18:11.171Z,14.20
2019-03-30T02:20:40.114Z,13.03
2019-03-30T02:23:07.717Z,13.50
2019-03-30T02:25:36.340Z,12.80
2019-03-30T02:28:06.765Z,14.03
2019-03-30T02:30:38.206Z,12.57
2019-03-30T02:33:09.344Z,13.03
2019-03-30T02:35:36.551Z,12.13
2019-03-30T02:38:06.454Z,12.30
2019-03-30T02:40:33.965Z,12.97
2019-03-30T02:43:01.525Z,12.33
2019-03-30T02:45:28.752Z,12.33
2019-03-30T02:48:00.982Z,12.77
2019-03-30T02:50:28.087Z,13.30
2019-03-30T02:52:57.179Z,12.97
2019-03-30T02:55:27.555Z,12.80
2019-03-30T02:57:54.876Z,13.67
2019-03-30T03:00:22.058Z,12.47
2019-03-30T03:02:49.512Z,12.17
2019-03-30T03:05:17.288Z,13.20
2019-03-30T03:07:46.880Z,11.53
2019-03-30T03:10:17.815Z,12.47
2019-03-30T03:12:46.208Z,14.10
2019-03-30T03:15:16.069Z,13.93
2019-03-30T03:17:48.229Z,15.40
2019-03-30T03:20:18.359Z,14.00
2019-03-30T03:22:47.125Z,12.93
2019-03-30T03:25:16.523Z,14.47
2019-03-30T03:27:46.500Z,14.03
2019-03-30T03:30:14.461Z,14.30
2019-03-30T03:32:41.613Z,13.20
2019-03-30T03:35:11.502Z,12.47
2019-03-30T03:37:45.294Z,12.60
2019-03-30T03:40:08.150Z,13.60
2019-03-30T03:42:35.736Z,12.10
2019-03-30T03:45:05.945Z,12.20
2019-03-30T03:47:41.314Z,12.37
2019-03-30T03:50:17.226Z,12.97
2019-03-30T03:52:46.842Z,12.40
2019-03-30T03:55:16.443Z,12.30
2019-03-30T03:57:46.312Z,12.03
2019-03-30T04:00:14.395Z,12.03
2019-03-30T04:02:41.588Z,12.13
2019-03-30T04:05:11.871Z,13.23
2019-03-30T04:07:42.162Z,13.87
2019-03-30T04:10:09.889Z,16.43
2019-03-30T04:12:37.297Z,16.63
2019-03-30T04:15:08.156Z,16.83
2019-03-30T04:17:36.086Z,16.77
2019-03-30T04:20:04.195Z,15.80
2019-03-30T04:22:33.786Z,17.80
2019-03-30T04:25:00.883Z,19.60
2019-03-30T04:27:28.450Z,17.33
2019-03-30T04:29:55.492Z,15.93
2019-03-30T04:32:22.746Z,16.43
2019-03-30T04:34:50.049Z,17.40
2019-03-30T04:37:17.060Z,18.23
2019-03-30T04:39:44.284Z,15.17
2019-03-30T04:42:11.674Z,13.77
2019-03-30T04:44:38.932Z,12.77
2019-03-30T04:47:06.390Z,11.67
2019-03-30T04:49:33.652Z,11.17
2019-03-30T04:52:00.731Z,11.77
2019-03-30T04:54:27.894Z,10.23
2019-03-30T04:56:55.161Z,10.87
2019-03-30T04:59:22.372Z,10.03
2019-03-30T05:01:49.669Z,10.20
2019-03-30T05:04:17.023Z,10.13
2019-03-30T05:06:44.204Z,9.87
2019-03-30T05:09:11.314Z,9.83
2019-03-30T05:11:38.612Z,9.43
2019-03-30T05:14:08.696Z,9.17
2019-03-30T05:16:38.568Z,10.47
2019-03-30T05:19:05.950Z,9.70
2019-03-30T05:21:34.062Z,10.17
2019-03-30T05:24:01.216Z,10.00
2019-03-30T05:26:28.328Z,9.03
2019-03-30T05:28:55.712Z,9.03
2019-03-30T05:31:22.941Z,9.30
2019-03-30T05:33:50.109Z,9.40
2019-03-30T05:36:17.245Z,9.50
2019-03-30T05:38:44.448Z,10.20
2019-03-30T05:41:11.685Z,9.87
2019-03-30T05:43:41.591Z,10.93
2019-03-30T05:46:08.749Z,11.47
2019-03-30T05:48:36.041Z,10.30
2019-03-30T05:51:03.253Z,9.90
2019-03-30T05:53:30.367Z,9.10
2019-03-30T05:55:59.478Z,9.00
2019-03-30T05:58:26.566Z,9.63
2019-03-30T06:00:54.590Z,8.97
2019-03-30T06:03:21.670Z,9.93
2019-03-30T06:05:48.817Z,8.53
2019-03-30T06:08:16.304Z,9.60
2019-03-30T06:10:43.430Z,10.00
2019-03-30T06:13:10.572Z,9.90
2019-03-30T06:15:37.778Z,8.90
2019-03-30T06:18:05.040Z,9.43
2019-03-30T06:20:33.609Z,9.17
2019-03-30T06:23:00.744Z,9.80
2019-03-30T06:25:27.890Z,9.30
2019-03-30T06:27:59.304Z,10.37
2019-03-30T06:30:28.243Z,9.90
2019-03-30T06:32:57.700Z,9.63
2019-03-30T06:35:24.877Z,9.47
2019-03-30T06:37:52.924Z,10.63
2019-03-30T06:40:20.995Z,10.00
2019-03-30T06:42:48.161Z,10.17
2019-03-30T06:45:15.614Z,9.13
2019-03-30T06:47:42.699Z,9.67
2019-03-30T06:50:11.049Z,8.97
2019-03-30T06:52:45.960Z,10.53
2019-03-30T06:55:10.205Z,11.57
2019-03-30T06:57:37.715Z,12.10
2019-03-30T07:00:05.768Z,11.73
2019-03-30T07:02:33.119Z,10.87
2019-03-30T07:05:01.614Z,10.37
2019-03-30T07:07:28.821Z,10.43
2019-03-30T07:09:58.461Z,10.47
2019-03-30T07:12:26.712Z,11.17
2019-03-30T07:14:55.728Z,13.10
2019-03-30T07:17:23.568Z,17.50
2019-03-30T07:19:53.281Z,16.90
2019-03-30T07:22:20.591Z,14.00
2019-03-30T07:24:49.884Z,13.03
2019-03-30T07:27:17.023Z,11.77
2019-03-30T07:29:44.610Z,12.37
2019-03-30T07:32:15.879Z,12.07
2019-03-30T07:34:43.011Z,12.17
2019-03-30T07:37:10.081Z,12.27
2019-03-30T07:39:37.391Z,11.97
2019-03-30T07:42:04.821Z,12.50
2019-03-30T07:44:32.234Z,12.23
2019-03-30T07:47:01.103Z,13.23
2019-03-30T07:49:28.241Z,14.07
2019-03-30T07:51:55.427Z,12.90
2019-03-30T07:54:24.980Z,14.83
2019-03-30T07:57:05.403Z,14.40
2019-03-30T07:59:27.760Z,12.20
2019-03-30T08:01:54.953Z,10.63
2019-03-30T08:04:22.667Z,10.03
2019-03-30T08:06:50.800Z,10.23
2019-03-30T08:09:18.214Z,10.73
2019-03-30T08:11:52.871Z,9.87
2019-03-30T08:14:20.072Z,10.07
2019-03-30T08:16:51.570Z,10.63
2019-03-30T08:19:21.811Z,9.83
2019-03-30T08:21:49.312Z,10.40
2019-03-30T08:24:18.465Z,10.10
2019-03-30T08:26:48.650Z,10.27
2019-03-30T08:29:15.806Z,9.97
2019-03-30T08:31:42.908Z,9.70
2019-03-30T08:34:10.896Z,11.20
2019-03-30T08:36:38.401Z,10.30
2019-03-30T08:39:08.347Z,10.80
2019-03-30T08:41:38.032Z,9.93
2019-03-30T08:44:05.354Z,11.10
2019-03-30T08:46:32.648Z,10.30
2019-03-30T08:49:05.077Z,10.47
2019-03-30T08:51:32.387Z,10.67
2019-03-30T08:54:00.399Z,11.10
2019-03-30T08:56:28.323Z,10.00
2019-03-30T08:58:55.405Z,10.30
2019-03-30T09:01:22.562Z,10.97
2019-03-30T09:03:49.659Z,12.00
2019-03-30T09:06:16.864Z,11.27
2019-03-30T09:08:44.006Z,10.87
2019-03-30T09:11:11.295Z,10.70
2019-03-30T09:13:38.354Z,10.83
2019-03-30T09:16:05.611Z,10.90
2019-03-30T09:18:32.764Z,11.17
2019-03-30T09:21:05.962Z,11.43
2019-03-30T09:23:33.116Z,11.03
2019-03-30T09:26:00.564Z,10.90
2019-03-30T09:28:27.920Z,12.17
2019-03-30T09:30:55.157Z,10.70
2019-03-30T09:33:22.333Z,11.57
2019-03-30T09:35:49.555Z,11.53
2019-03-30T09:38:27.389Z,11.43
2019-03-30T09:40:54.608Z,11.60
2019-03-30T09:43:21.744Z,10.70
2019-03-30T09:45:49.360Z,11.00
2019-03-30T09:48:16.902Z,11.20
2019-03-30T09:50:43.948Z,12.03
2019-03-30T09:53:11.265Z,11.40
2019-03-30T09:55:38.625Z,11.80
2019-03-30T09:58:05.849Z,10.47
2019-03-30T10:00:33.338Z,11.60
2019-03-30T10:03:00.499Z,11.67
2019-03-30T10:05:28.319Z,11.73
2019-03-30T10:07:55.483Z,10.90
2019-03-30T10:10:22.862Z,11.40
2019-03-30T10:12:51.353Z,10.00
2019-03-30T10:15:18.624Z,10.80
2019-03-30T10:17:55.293Z,11.90
2019-03-30T10:20:22.492Z,11.03
2019-03-30T10:22:49.673Z,10.50
2019-03-30T10:25:20.101Z,12.17
2019-03-30T10:27:47.722Z,11.43
2019-03-30T10:30:15.105Z,11.63
2019-03-30T10:32:42.322Z,12.03
2019-03-30T10:35:09.552Z,12.33
2019-03-30T10:37:37.811Z,12.17
2019-03-30T10:40:05.621Z,11.70
2019-03-30T10:42:32.761Z,12.23
2019-03-30T10:45:00.339Z,12.43
2019-03-30T10:47:29.971Z,11.60
2019-03-30T10:49:57.560Z,10.63
2019-03-30T10:52:24.660Z,11.17
2019-03-30T10:54:53.172Z,11.13
2019-03-30T10:57:20.712Z,12.27
2019-03-30T10:59:48.146Z,11.60
2019-03-30T11:02:15.409Z,10.53
2019-03-30T11:04:42.506Z,11.50
2019-03-30T11:07:09.856Z,9.80
2019-03-30T11:09:37.015Z,10.53
2019-03-30T11:12:04.391Z,10.63
2019-03-30T11:14:38.206Z,11.63
2019-03-30T11:17:05.657Z,10.33
2019-03-30T11:19:33.910Z,10.20
2019-03-30T11:22:03.246Z,11.37
2019-03-30T11:24:30.430Z,11.23
2019-03-30T11:26:57.523Z,12.17
2019-03-30T11:29:24.839Z,11.43
2019-03-30T11:31:56.167Z,11.30
2019-03-30T11:34:23.539Z,10.17
2019-03-30T11:36:53.386Z,11.30
2019-03-30T11:39:22.281Z,10.97
2019-03-30T11:41:50.534Z,9.87
2019-03-30T11:44:21.411Z,10.07
2019-03-30T11:46:48.981Z,10.33
2019-03-30T11:49:16.341Z,9.43
2019-03-30T11:51:43.600Z,10.37
2019-03-30T11:54:21.322Z,10.13
2019-03-30T11:56:49.482Z,10.93
2019-03-30T11:59:16.715Z,9.87
2019-03-30T12:01:44.160Z,11.10
2019-03-30T12:04:13.829Z,11.53
2019-03-30T12:06:41.145Z,9.17
2019-03-30T12:09:22.886Z,10.07
2019-03-30T12:11:50.121Z,10.37
2019-03-30T12:14:17.287Z,9.47
2019-03-30T12:16:44.598Z,10.37
2019-03-30T12:19:11.838Z,9.80
2019-03-30T12:21:38.951Z,9.57
2019-03-30T12:24:07.359Z,10.27
2019-03-30T12:26:34.530Z,9.00
2019-03-30T12:29:02.992Z,9.50
2019-03-30T12:31:30.414Z,8.07
2019-03-30T12:33:58.627Z,8.40
2019-03-30T12:36:25.873Z,9.10
2019-03-30T12:38:53.200Z,8.43
2019-03-30T12:41:20.975Z,9.30
2019-03-30T12:43:49.479Z,8.97
2019-03-30T12:46:19.919Z,8.17
2019-03-30T12:48:47.873Z,7.33
2019-03-30T12:51:15.532Z,8.03
2019-03-30T12:53:50.494Z,8.23
2019-03-30T12:56:15.939Z,7.37
2019-03-30T12:58:43.100Z,8.13
2019-03-30T13:01:15.732Z,9.77
2019-03-30T13:03:43.049Z,8.90
2019-03-30T13:06:12.197Z,7.37
2019-03-30T13:08:39.566Z,8.43
2019-03-30T13:11:07.642Z,7.67
2019-03-30T13:13:36.328Z,8.57
2019-03-30T13:16:04.601Z,7.00
2019-03-30T13:18:32.167Z,7.00
2019-03-30T13:21:00.477Z,8.18
2019-03-30T13:23:27.930Z,7.42
2019-03-30T13:26:04.062Z,8.85
2019-03-30T13:28:30.461Z,7.73
2019-03-30T13:30:59.431Z,6.75
2019-03-30T13:33:26.787Z,7.60
2019-03-30T13:35:54.106Z,7.00
2019-03-30T13:38:21.670Z,7.23
2019-03-30T13:40:50.988Z,7.42
2019-03-30T13:43:18.261Z,7.58
2019-03-30T13:45:45.433Z,7.40
2019-03-30T13:48:12.814Z,7.00
2019-03-30T13:50:39.907Z,7.53
2019-03-30T13:53:09.677Z,7.67
2019-03-30T13:55:36.849Z,7.97
2019-03-30T13:58:04.148Z,7.47
2019-03-30T14:00:31.249Z,6.80
2019-03-30T14:02:59.096Z,6.63
2019-03-30T14:05:26.876Z,6.20
2019-03-30T14:07:54.260Z,6.50
2019-03-30T14:10:23.003Z,7.20
2019-03-30T14:12:52.229Z,7.33
2019-03-30T14:15:19.396Z,6.53
2019-03-30T14:17:49.036Z,6.57
2019-03-30T14:20:16.104Z,7.07
2019-03-30T14:22:43.642Z,7.30
2019-03-30T14:25:11.015Z,6.50
2019-03-30T14:27:38.699Z,6.47
2019-03-30T14:30:07.107Z,6.50
2019-03-30T14:32:34.631Z,7.53
2019-03-30T14:35:04.179Z,6.77
2019-03-30T14:37:31.283Z,5.93
2019-03-30T14:39:59.677Z,6.63
2019-03-30T14:42:26.918Z,6.17
2019-03-30T14:44:54.506Z,6.50
2019-03-30T14:47:21.749Z,6.40
2019-03-30T14:49:48.914Z,9.47
2019-03-30T14:52:18.311Z,8.03
2019-03-30T14:54:52.709Z,6.17
2019-03-30T14:57:14.560Z,7.23
2019-03-30T14:59:42.855Z,7.07
2019-03-30T15:02:10.067Z,7.37
2019-03-30T15:04:37.598Z,7.17
2019-03-30T15:07:05.912Z,7.00
2019-03-30T15:09:33.023Z,6.80
2019-03-30T15:12:01.188Z,6.53
2019-03-30T15:14:28.298Z,7.40
2019-03-30T15:16:57.821Z,6.77
2019-03-30T15:19:24.968Z,6.00
2019-03-30T15:21:52.212Z,5.90
2019-03-30T15:24:28.330Z,6.20
2019-03-30T15:27:00.151Z,7.00
2019-03-30T15:29:26.180Z,6.13
2019-03-30T15:31:53.989Z,6.17
2019-03-30T15:34:28.849Z,7.00
2019-03-30T15:36:56.072Z,6.30
2019-03-30T15:39:23.636Z,6.97
2019-03-30T15:41:51.926Z,6.43
2019-03-30T15:44:19.057Z,6.60
2019-03-30T15:47:16.520Z,6.47
2019-03-30T15:49:43.903Z,6.17
2019-03-30T15:52:14.574Z,7.33
2019-03-30T15:54:41.792Z,5.80
2019-03-30T15:57:14.180Z,5.97
2019-03-30T15:59:38.278Z,6.97
2019-03-30T16:02:09.150Z,6.67
2019-03-30T16:04:38.005Z,6.07
2019-03-30T16:07:07.786Z,5.70
2019-03-30T16:09:36.145Z,5.87
2019-03-30T16:12:03.393Z,5.50
2019-03-30T16:14:31.091Z,5.40
2019-03-30T16:16:58.315Z,6.50
2019-03-30T16:19:27.010Z,6.60
2019-03-30T16:21:54.159Z,5.97
2019-03-30T16:24:21.336Z,5.20
2019-03-30T16:26:50.188Z,6.07
2019-03-30T16:29:18.712Z,5.50
2019-03-30T16:31:46.261Z,6.07
2019-03-30T16:34:13.434Z,5.93
2019-03-30T16:36:41.359Z,6.40
2019-03-30T16:39:08.986Z,6.73
2019-03-30T16:41:37.010Z,6.73
2019-03-30T16:44:04.132Z,11.97
2019-03-30T16:46:31.281Z,8.10
2019-03-30T16:48:58.375Z,8.10
2019-03-30T16:51:25.545Z,6.13
2019-03-30T16:53:52.986Z,6.23
2019-03-30T16:56:20.221Z,6.73
2019-03-30T16:58:48.647Z,7.10
2019-03-30T17:01:15.765Z,6.23
2019-03-30T17:03:42.926Z,12.13
2019-03-30T17:06:10.138Z,8.57
2019-03-30T17:08:37.259Z,7.07
2019-03-30T17:11:06.971Z,9.53
2019-03-30T17:13:34.171Z,8.90
2019-03-30T17:16:01.340Z,10.30
2019-03-30T17:18:28.505Z,9.63
2019-03-30T17:20:55.687Z,11.53
2019-03-30T17:23:22.825Z,9.33
2019-03-30T17:25:49.923Z,16.70
2019-03-30T17:28:17.321Z,11.47
2019-03-30T17:30:44.368Z,19.70
2019-03-30T17:33:12.120Z,14.80
2019-03-30T17:35:39.190Z,14.30
2019-03-30T17:38:06.480Z,12.03
2019-03-30T17:40:39.575Z,12.97
2019-03-30T17:43:06.710Z,11.13
2019-03-30T17:45:34.029Z,13.77
2019-03-30T17:48:03.991Z,10.10
2019-03-30T17:50:31.228Z,11.03
2019-03-30T17:52:58.587Z,9.80
2019-03-30T17:55:33.486Z,8.50
2019-03-30T17:57:55.028Z,6.67
2019-03-30T18:00:22.648Z,6.37
2019-03-30T18:02:49.902Z,6.67
2019-03-30T18:05:16.984Z,6.20
2019-03-30T18:07:44.394Z,11.03
2019-03-30T18:10:12.502Z,9.87
2019-03-30T18:12:39.642Z,7.23
2019-03-30T18:15:14.232Z,7.50
2019-03-30T18:17:42.785Z,7.33
2019-03-30T18:20:10.236Z,7.23
2019-03-30T18:22:39.313Z,7.77
2019-03-30T18:25:07.122Z,7.57
2019-03-30T18:27:34.781Z,8.50
2019-03-30T18:30:02.264Z,8.90
2019-03-30T18:32:29.859Z,15.87
2019-03-30T18:34:57.300Z,12.33
2019-03-30T18:37:24.701Z,7.83
2019-03-30T18:39:51.958Z,6.27
2019-03-30T18:42:25.682Z,7.67
2019-03-30T18:44:54.210Z,7.17
2019-03-30T18:47:21.357Z,6.80
2019-03-30T18:49:48.709Z,7.27
2019-03-30T18:52:16.462Z,7.70
2019-03-30T18:54:43.776Z,6.83
2019-03-30T18:57:11.057Z,8.03
2019-03-30T18:59:38.552Z,8.67
2019-03-30T19:02:05.619Z,8.83
2019-03-30T19:04:33.775Z,8.30
2019-03-30T19:07:01.363Z,8.97
2019-03-30T19:09:29.457Z,7.80
2019-03-30T19:11:57.396Z,7.90
2019-03-30T19:14:24.537Z,8.03
2019-03-30T19:16:54.273Z,7.47
2019-03-30T19:19:21.285Z,7.30
2019-03-30T19:21:51.206Z,7.50
2019-03-30T19:24:19.011Z,6.63
2019-03-30T19:26:46.975Z,7.10
2019-03-30T19:29:14.206Z,7.50
2019-03-30T19:31:41.486Z,7.63
2019-03-30T19:34:08.673Z,7.80
2019-03-30T19:36:36.729Z,6.50
2019-03-30T19:39:07.058Z,6.93
2019-03-30T19:41:35.168Z,6.90
2019-03-30T19:44:02.500Z,7.33
2019-03-30T19:46:29.796Z,7.33
2019-03-30T19:48:57.633Z,6.87
2019-03-30T19:51:24.980Z,6.70
2019-03-30T19:53:53.427Z,6.60
2019-03-30T19:56:20.978Z,6.23
2019-03-30T19:58:48.021Z,6.77
2019-03-30T20:01:15.424Z,7.07
2019-03-30T20:03:42.665Z,6.47
2019-03-30T20:06:09.979Z,7.43
2019-03-30T20:08:37.362Z,5.77
2019-03-30T20:11:05.080Z,6.43
2019-03-30T20:13:32.208Z,7.27
2019-03-30T20:15:59.254Z,6.47
2019-03-30T20:18:26.391Z,7.00
2019-03-30T20:20:53.526Z,6.47
2019-03-30T20:23:20.650Z,6.80
2019-03-30T20:25:47.994Z,6.07
2019-03-30T20:28:15.068Z,6.33
2019-03-30T20:30:42.426Z,6.67
2019-03-30T20:33:09.535Z,6.37
2019-03-30T20:35:36.862Z,6.57
2019-03-30T20:38:04.063Z,6.70
2019-03-30T20:40:31.114Z,6.93
2019-03-30T20:42:58.214Z,6.40
2019-03-30T20:45:26.455Z,6.40
2019-03-30T20:47:57.220Z,6.30
2019-03-30T20:50:24.693Z,6.57
2019-03-30T20:52:53.006Z,7.67
2019-03-30T20:55:20.333Z,6.77
2019-03-30T20:57:47.823Z,6.63
2019-03-30T21:00:15.821Z,6.47
2019-03-30T21:02:42.934Z,6.17
2019-03-30T21:05:10.515Z,6.87
2019-03-30T21:07:37.541Z,6.50
2019-03-30T21:10:06.861Z,6.80
2019-03-30T21:12:34.413Z,7.00
2019-03-30T21:15:01.576Z,6.23
2019-03-30T21:17:33.326Z,6.90
2019-03-30T21:20:02.427Z,6.50
2019-03-30T21:22:34.781Z,8.43
2019-03-30T21:25:10.047Z,7.83
2019-03-30T21:27:37.079Z,6.93
2019-03-30T21:30:06.607Z,7.40
2019-03-30T21:32:34.027Z,7.90
2019-03-30T21:35:01.243Z,7.67
2019-03-30T21:37:28.361Z,8.87
2019-03-30T21:39:55.441Z,8.50
2019-03-30T21:42:30.554Z,8.73
2019-03-30T21:44:57.746Z,7.97
2019-03-30T21:47:24.791Z,8.53
2019-03-30T21:49:51.997Z,7.80
2019-03-30T21:52:22.258Z,7.27
2019-03-30T21:54:51.791Z,7.70
2019-03-30T21:57:21.051Z,8.57
2019-03-30T21:59:48.089Z,7.83
2019-03-30T22:02:15.892Z,7.80
2019-03-30T22:04:43.361Z,7.67
2019-03-30T22:07:31.199Z,7.40
2019-03-30T22:09:59.569Z,7.97
2019-03-30T22:12:28.126Z,8.57
2019-03-30T22:14:55.207Z,8.80
2019-03-30T22:17:23.420Z,8.13
2019-03-30T22:19:58.866Z,8.23
2019-03-30T22:22:26.116Z,8.23
2019-03-30T22:25:03.170Z,8.90
2019-03-30T22:27:37.096Z,8.47
2019-03-30T22:30:05.012Z,9.43
2019-03-30T22:32:32.187Z,9.13
2019-03-30T22:34:59.231Z,8.57
2019-03-30T22:37:26.280Z,9.10
2019-03-30T22:39:53.786Z,8.77
2019-03-30T22:42:21.118Z,10.27
2019-03-30T22:44:48.561Z,9.43
2019-03-30T22:47:15.626Z,9.23
2019-03-30T22:49:42.685Z,9.73
2019-03-30T22:52:09.762Z,10.07
2019-03-30T22:54:36.903Z,9.70
2019-03-30T22:57:03.945Z,9.97
2019-03-30T22:59:31.104Z,10.63
2019-03-30T23:01:58.315Z,10.53
2019-03-30T23:04:25.325Z,10.03
2019-03-30T23:06:54.468Z,10.30
2019-03-30T23:09:21.618Z,10.03
2019-03-30T23:11:48.682Z,10.63
2019-03-30T23:14:15.734Z,9.33
2019-03-30T23:16:43.035Z,11.07
2019-03-30T23:19:10.141Z,10.07
2019-03-30T23:21:37.201Z,9.43
2019-03-30T23:24:07.040Z,10.77
2019-03-30T23:26:34.385Z,9.67
2019-03-30T23:29:01.868Z,9.93
2019-03-30T23:31:28.974Z,11.53
2019-03-30T23:33:56.297Z,11.10
2019-03-30T23:36:23.416Z,11.17
2019-03-30T23:38:53.525Z,11.33
2019-03-30T23:41:20.731Z,10.97
2019-03-30T23:43:47.805Z,10.97
2019-03-30T23:46:15.157Z,11.40
2019-03-30T23:48:42.275Z,11.57
2019-03-30T23:51:09.287Z,11.20
2019-03-30T23:53:36.320Z,10.83
2019-03-30T23:56:15.816Z,10.63
2019-03-30T23:58:42.873Z,11.50
